map of PVS home
PVS - Airport
Location
City:  Provideniya Bay, Chukotskiy, Russian Federation (Russia)
Near (Alt.):Urelik, Ureliki
Name:Provideniya Bay Airport
ICAO:UHMD
IATA:PVS

Details
Type:Airport (Aerodrome, Airfield)
Use:Public/Civil, International (customs port of entry)
Latitude:6422'41"N (64.378056)
Longitude:17314'36"W (-173.243332)
Elevation:71 ft (22 m)
Variation:6.14E (WMM2015 magnetic declination)
-0.27 annual change
Runways:1
Longest:6562 × 171 ft (2000 × 52 m)

Weather
METAR:UHMD 120500Z 33010MPS P1000 BKN150 M10/M17 Q1004 RMK QFE752/1003

Related Locations
Nearby:
Farthest:NZSP: 10653 mi / 17144 km
Amundsen-Scott South Pole Station [Jack F. Paulus Skiway], AQ

Find:

   beyond  
but within

Other Information
Maps:
NOTAMs:
Links:
Sources:

  
flag of Russian Federation (Russia)
flag of Chukotskiy
  

Airport Diagram

Airport diagram for PVS

Airport diagram PDF from AIP of the Russian Federation

Sectional Chart

Flight Planning
at skyvector.com

Satellite Image

Google Maps Satellite view

Yandex Maps Satellite view


 

Copyright © 2004-2017 Karl L. Swartz. All rights reserved.
The Great Circle Mapper name and logo are trademarks of the Great Circle Mapper.
All other trademarks mentioned herein belong to their respective owners.
Please see credits for attibutions and further copyright information.

  Follow gcmap on Facebook Follow gcmap on Twitter Follow gcmap on Google+ GCmap on LinkedIn

hCard Microformat

Geo Microformat